Lake Panamoka, New York
Current Conditions -  °F | °C
As of 10:23 AM on Wednesday 22 Oct 2014 (Local Time) from KHWV Reporting Station
Overcast Overcast  
Wind Chill: 56°   Ceiling: 1400
Heat Index: 56°   Visibility: 10mi
Dew Point: 52°   Wind: 9mph
Humidity: 87%   Direction: 20°NNE
Pressure: 29.92"   Gusts: 23mph
Location:  40.8942°N, 72.8763°W
Report Text: KHWV 221423Z AUTO 02008G20KT 10SM OVC014 13/11 A2992 RMK AO2 RAE20 P0000 T01330111 TSNO
Loading
Personal Weather Stations






























Interactive Weather Map New forecast layout! Learn more

10-Day Weather Forecast

Advertisements
Track Severe Weather on mobile